sensor_id;sensor_type;location;lat;lon;timestamp;temperature;humidity
25280;DHT22;13225;47.804;12.116;2023-04-03T00:01:01;3.20;99.90
25280;DHT22;13225;47.804;12.116;2023-04-03T00:03:27;3.20;99.90
25280;DHT22;13225;47.804;12.116;2023-04-03T00:05:53;3.20;99.90
25280;DHT22;13225;47.804;12.116;2023-04-03T00:08:19;3.20;99.90
25280;DHT22;13225;47.804;12.116;2023-04-03T00:10:50;3.10;99.90
25280;DHT22;13225;47.804;12.116;2023-04-03T00:13:15;3.20;99.90
25280;DHT22;13225;47.804;12.116;2023-04-03T00:15:41;3.00;99.90
25280;DHT22;13225;47.804;12.116;2023-04-03T00:18:07;3.00;99.90
25280;DHT22;13225;47.804;12.116;2023-04-03T00:20:33;3.00;99.90
25280;DHT22;13225;47.804;12.116;2023-04-03T00:23:01;3.10;99.90
25280;DHT22;13225;47.804;12.116;2023-04-03T00:25:27;3.10;99.90
25280;DHT22;13225;47.804;12.116;2023-04-03T00:27:52;3.10;99.90
25280;DHT22;13225;47.804;12.116;2023-04-03T00:30:20;3.00;99.90
25280;DHT22;13225;47.804;12.116;2023-04-03T00:32:48;3.00;99.90
25280;DHT22;13225;47.804;12.116;2023-04-03T00:35:14;2.90;99.90
25280;DHT22;13225;47.804;12.116;2023-04-03T00:37:42;3.00;99.90
25280;DHT22;13225;47.804;12.116;2023-04-03T00:40:08;3.10;99.90
25280;DHT22;13225;47.804;12.116;2023-04-03T00:42:36;3.00;99.90
25280;DHT22;13225;47.804;12.116;2023-04-03T00:47:28;3.10;99.90
25280;DHT22;13225;47.804;12.116;2023-04-03T00:49:56;3.10;99.90
25280;DHT22;13225;47.804;12.116;2023-04-03T00:52:25;3.10;99.90
25280;DHT22;13225;47.804;12.116;2023-04-03T00:54:56;3.20;99.90
25280;DHT22;13225;47.804;12.116;2023-04-03T00:57:23;3.20;99.90
25280;DHT22;13225;47.804;12.116;2023-04-03T00:59:53;3.10;99.90
25280;DHT22;13225;47.804;12.116;2023-04-03T01:02:20;3.00;99.90
25280;DHT22;13225;47.804;12.116;2023-04-03T01:04:46;3.10;99.90
25280;DHT22;13225;47.804;12.116;2023-04-03T01:07:17;3.10;99.90
25280;DHT22;13225;47.804;12.116;2023-04-03T01:09:45;3.10;99.90
25280;DHT22;13225;47.804;12.116;2023-04-03T01:12:19;3.10;99.90
25280;DHT22;13225;47.804;12.116;2023-04-03T01:14:48;3.10;99.90
25280;DHT22;13225;47.804;12.116;2023-04-03T01:17:46;3.00;99.90
25280;DHT22;13225;47.804;12.116;2023-04-03T01:20:26;3.00;99.90
25280;DHT22;13225;47.804;12.116;2023-04-03T01:25:38;3.00;99.90
25280;DHT22;13225;47.804;12.116;2023-04-03T01:28:06;3.00;99.90
25280;DHT22;13225;47.804;12.116;2023-04-03T01:30:43;2.90;99.90
25280;DHT22;13225;47.804;12.116;2023-04-03T01:33:10;2.90;99.90
25280;DHT22;13225;47.804;12.116;2023-04-03T01:35:37;3.00;99.90
25280;DHT22;13225;47.804;12.116;2023-04-03T01:38:02;3.00;99.90
25280;DHT22;13225;47.804;12.116;2023-04-03T01:40:28;3.00;99.90
25280;DHT22;13225;47.804;12.116;2023-04-03T01:42:54;3.00;99.90
25280;DHT22;13225;47.804;12.116;2023-04-03T01:45:19;3.00;99.90
25280;DHT22;13225;47.804;12.116;2023-04-03T01:47:45;3.00;99.90
25280;DHT22;13225;47.804;12.116;2023-04-03T01:50:10;3.00;99.90
25280;DHT22;13225;47.804;12.116;2023-04-03T01:52:36;3.00;99.90
25280;DHT22;13225;47.804;12.116;2023-04-03T01:55:01;2.90;99.90
25280;DHT22;13225;47.804;12.116;2023-04-03T01:57:27;2.90;99.90
25280;DHT22;13225;47.804;12.116;2023-04-03T01:59:53;2.90;99.90
25280;DHT22;13225;47.804;12.116;2023-04-03T02:02:18;3.00;99.90
25280;DHT22;13225;47.804;12.116;2023-04-03T02:04:45;3.00;99.90
25280;DHT22;13225;47.804;12.116;2023-04-03T02:07:15;3.00;99.90
25280;DHT22;13225;47.804;12.116;2023-04-03T02:09:41;3.00;99.90
25280;DHT22;13225;47.804;12.116;2023-04-03T02:12:06;2.90;99.90
25280;DHT22;13225;47.804;12.116;2023-04-03T02:14:32;2.90;99.90
25280;DHT22;13225;47.804;12.116;2023-04-03T02:16:58;2.90;99.90
25280;DHT22;13225;47.804;12.116;2023-04-03T02:19:26;2.90;99.90
25280;DHT22;13225;47.804;12.116;2023-04-03T02:21:51;2.90;99.90
25280;DHT22;13225;47.804;12.116;2023-04-03T02:24:17;2.90;99.90
25280;DHT22;13225;47.804;12.116;2023-04-03T02:26:42;2.90;99.90
25280;DHT22;13225;47.804;12.116;2023-04-03T02:29:08;2.90;99.90
25280;DHT22;13225;47.804;12.116;2023-04-03T02:31:33;2.90;99.90
25280;DHT22;13225;47.804;12.116;2023-04-03T02:33:59;2.80;99.90
25280;DHT22;13225;47.804;12.116;2023-04-03T02:36:24;2.90;99.90
25280;DHT22;13225;47.804;12.116;2023-04-03T02:38:50;2.90;99.90
25280;DHT22;13225;47.804;12.116;2023-04-03T02:41:16;2.90;99.90
25280;DHT22;13225;47.804;12.116;2023-04-03T02:43:41;2.80;99.90
25280;DHT22;13225;47.804;12.116;2023-04-03T02:46:07;2.80;99.90
25280;DHT22;13225;47.804;12.116;2023-04-03T02:48:33;2.80;99.90
25280;DHT22;13225;47.804;12.116;2023-04-03T02:50:59;2.80;99.90
25280;DHT22;13225;47.804;12.116;2023-04-03T02:53:24;2.90;99.90
25280;DHT22;13225;47.804;12.116;2023-04-03T02:55:50;2.90;99.90
25280;DHT22;13225;47.804;12.116;2023-04-03T02:58:15;2.80;99.90
25280;DHT22;13225;47.804;12.116;2023-04-03T03:00:41;2.80;99.90
25280;DHT22;13225;47.804;12.116;2023-04-03T03:03:07;2.80;99.90
25280;DHT22;13225;47.804;12.116;2023-04-03T03:05:34;2.70;99.90
25280;DHT22;13225;47.804;12.116;2023-04-03T03:07:59;2.70;99.90
25280;DHT22;13225;47.804;12.116;2023-04-03T03:10:25;2.70;99.90
25280;DHT22;13225;47.804;12.116;2023-04-03T03:12:51;2.70;99.90
25280;DHT22;13225;47.804;12.116;2023-04-03T03:15:17;2.70;99.90
25280;DHT22;13225;47.804;12.116;2023-04-03T03:17:44;2.70;99.90
25280;DHT22;13225;47.804;12.116;2023-04-03T03:20:11;2.70;99.90
25280;DHT22;13225;47.804;12.116;2023-04-03T03:22:37;2.70;99.90
25280;DHT22;13225;47.804;12.116;2023-04-03T03:25:03;2.70;99.90
25280;DHT22;13225;47.804;12.116;2023-04-03T03:27:29;2.80;99.90
25280;DHT22;13225;47.804;12.116;2023-04-03T03:29:54;2.70;99.90
25280;DHT22;13225;47.804;12.116;2023-04-03T03:32:20;2.70;99.90
25280;DHT22;13225;47.804;12.116;2023-04-03T03:34:45;2.70;99.90
25280;DHT22;13225;47.804;12.116;2023-04-03T03:37:24;2.70;99.90
25280;DHT22;13225;47.804;12.116;2023-04-03T03:40:02;2.70;99.90
25280;DHT22;13225;47.804;12.116;2023-04-03T03:42:28;2.70;99.90
25280;DHT22;13225;47.804;12.116;2023-04-03T03:44:53;2.70;99.90
25280;DHT22;13225;47.804;12.116;2023-04-03T03:47:19;2.70;99.90
25280;DHT22;13225;47.804;12.116;2023-04-03T03:49:45;2.80;99.90
25280;DHT22;13225;47.804;12.116;2023-04-03T03:52:11;2.80;99.90
25280;DHT22;13225;47.804;12.116;2023-04-03T03:54:37;2.80;99.90
25280;DHT22;13225;47.804;12.116;2023-04-03T03:57:03;2.80;99.90
25280;DHT22;13225;47.804;12.116;2023-04-03T03:59:29;2.80;99.90
25280;DHT22;13225;47.804;12.116;2023-04-03T04:01:54;2.80;99.90
25280;DHT22;13225;47.804;12.116;2023-04-03T04:04:20;2.80;99.90
25280;DHT22;13225;47.804;12.116;2023-04-03T04:06:46;2.70;99.90
25280;DHT22;13225;47.804;12.116;2023-04-03T04:09:12;2.70;99.90
25280;DHT22;13225;47.804;12.116;2023-04-03T04:11:37;2.70;99.90
25280;DHT22;13225;47.804;12.116;2023-04-03T04:14:07;2.70;99.90
25280;DHT22;13225;47.804;12.116;2023-04-03T04:16:33;2.70;99.90
25280;DHT22;13225;47.804;12.116;2023-04-03T04:18:58;2.80;99.90
25280;DHT22;13225;47.804;12.116;2023-04-03T04:21:24;2.80;99.90
25280;DHT22;13225;47.804;12.116;2023-04-03T04:23:49;2.80;99.90
25280;DHT22;13225;47.804;12.116;2023-04-03T04:26:15;2.80;99.90
25280;DHT22;13225;47.804;12.116;2023-04-03T04:28:41;2.80;99.90
25280;DHT22;13225;47.804;12.116;2023-04-03T04:31:06;2.80;99.90
25280;DHT22;13225;47.804;12.116;2023-04-03T04:33:32;2.90;99.90
25280;DHT22;13225;47.804;12.116;2023-04-03T04:35:57;2.90;99.90
25280;DHT22;13225;47.804;12.116;2023-04-03T04:38:23;2.90;99.90
25280;DHT22;13225;47.804;12.116;2023-04-03T04:40:49;2.80;99.90
25280;DHT22;13225;47.804;12.116;2023-04-03T04:43:14;2.80;99.90
25280;DHT22;13225;47.804;12.116;2023-04-03T04:45:41;2.80;99.90
25280;DHT22;13225;47.804;12.116;2023-04-03T04:48:07;2.80;99.90
25280;DHT22;13225;47.804;12.116;2023-04-03T04:50:33;2.90;99.90
25280;DHT22;13225;47.804;12.116;2023-04-03T04:52:58;2.90;99.90
25280;DHT22;13225;47.804;12.116;2023-04-03T04:55:24;3.00;99.90
25280;DHT22;13225;47.804;12.116;2023-04-03T04:57:49;3.00;99.90
25280;DHT22;13225;47.804;12.116;2023-04-03T05:00:15;3.00;99.90
25280;DHT22;13225;47.804;12.116;2023-04-03T05:02:41;3.00;99.90
25280;DHT22;13225;47.804;12.116;2023-04-03T05:05:07;3.00;99.90
25280;DHT22;13225;47.804;12.116;2023-04-03T05:07:33;3.00;99.90
25280;DHT22;13225;47.804;12.116;2023-04-03T05:09:58;3.00;99.90
25280;DHT22;13225;47.804;12.116;2023-04-03T05:12:24;3.00;99.90
25280;DHT22;13225;47.804;12.116;2023-04-03T05:14:50;2.90;99.90
25280;DHT22;13225;47.804;12.116;2023-04-03T05:17:15;3.00;99.90
25280;DHT22;13225;47.804;12.116;2023-04-03T05:19:41;2.90;99.90
25280;DHT22;13225;47.804;12.116;2023-04-03T05:22:06;2.90;99.90
25280;DHT22;13225;47.804;12.116;2023-04-03T05:24:32;3.00;99.90
25280;DHT22;13225;47.804;12.116;2023-04-03T05:26:58;2.90;99.90
25280;DHT22;13225;47.804;12.116;2023-04-03T05:29:24;2.90;99.90
25280;DHT22;13225;47.804;12.116;2023-04-03T05:31:51;2.90;99.90
25280;DHT22;13225;47.804;12.116;2023-04-03T05:34:16;2.90;99.90
25280;DHT22;13225;47.804;12.116;2023-04-03T05:36:42;3.00;99.90
25280;DHT22;13225;47.804;12.116;2023-04-03T05:39:08;3.00;99.90
25280;DHT22;13225;47.804;12.116;2023-04-03T05:41:33;3.00;99.90
25280;DHT22;13225;47.804;12.116;2023-04-03T05:43:59;3.00;99.90
25280;DHT22;13225;47.804;12.116;2023-04-03T05:46:25;3.00;99.90
25280;DHT22;13225;47.804;12.116;2023-04-03T05:48:51;3.00;99.90
25280;DHT22;13225;47.804;12.116;2023-04-03T05:51:19;3.10;99.90
25280;DHT22;13225;47.804;12.116;2023-04-03T05:53:54;3.10;99.90
25280;DHT22;13225;47.804;12.116;2023-04-03T05:56:20;3.10;99.90
25280;DHT22;13225;47.804;12.116;2023-04-03T05:58:46;3.10;99.90
25280;DHT22;13225;47.804;12.116;2023-04-03T06:01:12;3.20;99.90
25280;DHT22;13225;47.804;12.116;2023-04-03T06:03:38;3.10;99.90
25280;DHT22;13225;47.804;12.116;2023-04-03T06:06:05;3.20;99.90
25280;DHT22;13225;47.804;12.116;2023-04-03T06:08:31;3.20;99.90
25280;DHT22;13225;47.804;12.116;2023-04-03T06:11:12;3.30;99.90
25280;DHT22;13225;47.804;12.116;2023-04-03T06:13:37;3.40;99.90
25280;DHT22;13225;47.804;12.116;2023-04-03T06:16:04;3.40;99.90
25280;DHT22;13225;47.804;12.116;2023-04-03T06:18:29;3.30;99.90
25280;DHT22;13225;47.804;12.116;2023-04-03T06:20:55;3.30;99.90
25280;DHT22;13225;47.804;12.116;2023-04-03T06:23:21;3.30;99.90
25280;DHT22;13225;47.804;12.116;2023-04-03T06:25:46;3.30;99.90
25280;DHT22;13225;47.804;12.116;2023-04-03T06:28:12;3.30;99.90
25280;DHT22;13225;47.804;12.116;2023-04-03T06:30:37;3.30;99.90
25280;DHT22;13225;47.804;12.116;2023-04-03T06:33:03;3.40;99.90
25280;DHT22;13225;47.804;12.116;2023-04-03T06:35:29;3.40;99.90
25280;DHT22;13225;47.804;12.116;2023-04-03T06:37:55;3.40;99.90
25280;DHT22;13225;47.804;12.116;2023-04-03T06:40:23;3.40;99.90
25280;DHT22;13225;47.804;12.116;2023-04-03T06:42:50;3.50;99.90
25280;DHT22;13225;47.804;12.116;2023-04-03T06:45:20;3.50;99.90
25280;DHT22;13225;47.804;12.116;2023-04-03T06:47:46;3.50;99.90
25280;DHT22;13225;47.804;12.116;2023-04-03T06:50:12;3.50;99.90
25280;DHT22;13225;47.804;12.116;2023-04-03T06:52:40;3.60;99.90
25280;DHT22;13225;47.804;12.116;2023-04-03T06:55:07;3.60;99.90
25280;DHT22;13225;47.804;12.116;2023-04-03T06:57:33;3.60;99.90
25280;DHT22;13225;47.804;12.116;2023-04-03T06:59:59;3.70;99.90
25280;DHT22;13225;47.804;12.116;2023-04-03T07:02:25;3.70;99.90
25280;DHT22;13225;47.804;12.116;2023-04-03T07:04:50;3.80;99.90
25280;DHT22;13225;47.804;12.116;2023-04-03T07:07:16;3.90;99.90
25280;DHT22;13225;47.804;12.116;2023-04-03T07:09:43;4.00;99.90
25280;DHT22;13225;47.804;12.116;2023-04-03T07:12:11;4.00;99.90
25280;DHT22;13225;47.804;12.116;2023-04-03T07:14:37;4.10;99.90
25280;DHT22;13225;47.804;12.116;2023-04-03T07:17:03;4.10;99.90
25280;DHT22;13225;47.804;12.116;2023-04-03T07:19:28;4.20;99.90
25280;DHT22;13225;47.804;12.116;2023-04-03T07:21:54;4.20;99.90
25280;DHT22;13225;47.804;12.116;2023-04-03T07:24:20;4.20;99.90
25280;DHT22;13225;47.804;12.116;2023-04-03T07:26:52;4.40;99.90
25280;DHT22;13225;47.804;12.116;2023-04-03T07:29:18;4.40;99.90
25280;DHT22;13225;47.804;12.116;2023-04-03T07:31:43;4.50;99.90
25280;DHT22;13225;47.804;12.116;2023-04-03T07:34:10;4.50;99.90
25280;DHT22;13225;47.804;12.116;2023-04-03T07:36:36;4.60;99.90
25280;DHT22;13225;47.804;12.116;2023-04-03T07:39:01;4.80;99.90
25280;DHT22;13225;47.804;12.116;2023-04-03T07:41:28;4.90;99.90
25280;DHT22;13225;47.804;12.116;2023-04-03T07:43:55;5.00;99.90
25280;DHT22;13225;47.804;12.116;2023-04-03T07:46:22;4.90;99.90
25280;DHT22;13225;47.804;12.116;2023-04-03T07:48:48;4.80;99.90
25280;DHT22;13225;47.804;12.116;2023-04-03T07:51:13;4.70;99.90
25280;DHT22;13225;47.804;12.116;2023-04-03T07:53:39;4.70;99.90
25280;DHT22;13225;47.804;12.116;2023-04-03T07:56:04;4.70;99.90
25280;DHT22;13225;47.804;12.116;2023-04-03T07:58:30;4.80;99.90
25280;DHT22;13225;47.804;12.116;2023-04-03T08:00:56;4.80;99.90
25280;DHT22;13225;47.804;12.116;2023-04-03T08:03:21;4.80;99.90
25280;DHT22;13225;47.804;12.116;2023-04-03T08:05:49;4.90;99.90
25280;DHT22;13225;47.804;12.116;2023-04-03T08:08:17;4.90;99.90
25280;DHT22;13225;47.804;12.116;2023-04-03T08:10:43;5.00;99.90
25280;DHT22;13225;47.804;12.116;2023-04-03T08:13:09;5.10;99.90
25280;DHT22;13225;47.804;12.116;2023-04-03T08:15:35;5.10;99.90
25280;DHT22;13225;47.804;12.116;2023-04-03T08:18:01;5.10;99.90
25280;DHT22;13225;47.804;12.116;2023-04-03T08:20:27;5.20;99.90
25280;DHT22;13225;47.804;12.116;2023-04-03T08:22:53;5.30;99.90
25280;DHT22;13225;47.804;12.116;2023-04-03T08:25:19;5.30;99.90
25280;DHT22;13225;47.804;12.116;2023-04-03T08:27:45;5.30;99.90
25280;DHT22;13225;47.804;12.116;2023-04-03T08:30:11;5.30;99.90
25280;DHT22;13225;47.804;12.116;2023-04-03T08:32:37;5.20;99.90
25280;DHT22;13225;47.804;12.116;2023-04-03T08:35:04;5.20;99.90
25280;DHT22;13225;47.804;12.116;2023-04-03T08:37:30;5.20;99.90
25280;DHT22;13225;47.804;12.116;2023-04-03T08:39:55;5.30;99.90
25280;DHT22;13225;47.804;12.116;2023-04-03T08:45:22;5.50;99.90
25280;DHT22;13225;47.804;12.116;2023-04-03T08:47:58;5.70;99.90
25280;DHT22;13225;47.804;12.116;2023-04-03T08:50:47;5.50;99.90
25280;DHT22;13225;47.804;12.116;2023-04-03T08:53:27;5.30;99.90
25280;DHT22;13225;47.804;12.116;2023-04-03T08:55:55;5.50;99.90
25280;DHT22;13225;47.804;12.116;2023-04-03T08:58:24;5.40;99.90
25280;DHT22;13225;47.804;12.116;2023-04-03T09:03:21;5.60;99.90
25280;DHT22;13225;47.804;12.116;2023-04-03T09:06:02;5.50;99.90
25280;DHT22;13225;47.804;12.116;2023-04-03T09:08:33;5.80;99.90
25280;DHT22;13225;47.804;12.116;2023-04-03T09:11:27;6.00;99.90
25280;DHT22;13225;47.804;12.116;2023-04-03T09:14:07;6.40;99.90
25280;DHT22;13225;47.804;12.116;2023-04-03T09:16:56;6.50;99.90
25280;DHT22;13225;47.804;12.116;2023-04-03T09:22:01;6.20;99.90
25280;DHT22;13225;47.804;12.116;2023-04-03T09:24:28;6.00;99.90
25280;DHT22;13225;47.804;12.116;2023-04-03T09:27:03;6.00;99.90
25280;DHT22;13225;47.804;12.116;2023-04-03T09:29:30;6.30;99.90
25280;DHT22;13225;47.804;12.116;2023-04-03T09:32:17;6.50;99.90
25280;DHT22;13225;47.804;12.116;2023-04-03T09:34:43;6.60;99.90
25280;DHT22;13225;47.804;12.116;2023-04-03T09:37:10;6.60;99.90
25280;DHT22;13225;47.804;12.116;2023-04-03T09:39:55;6.50;99.90
25280;DHT22;13225;47.804;12.116;2023-04-03T09:42:23;6.60;99.90
25280;DHT22;13225;47.804;12.116;2023-04-03T09:47:26;6.40;99.90
25280;DHT22;13225;47.804;12.116;2023-04-03T09:50:22;6.40;99.90
25280;DHT22;13225;47.804;12.116;2023-04-03T09:52:50;6.50;99.90
25280;DHT22;13225;47.804;12.116;2023-04-03T09:55:27;6.50;99.90
25280;DHT22;13225;47.804;12.116;2023-04-03T09:57:55;6.60;99.90
25280;DHT22;13225;47.804;12.116;2023-04-03T10:00:30;6.50;99.90
25280;DHT22;13225;47.804;12.116;2023-04-03T10:02:58;6.40;99.90
25280;DHT22;13225;47.804;12.116;2023-04-03T10:05:39;6.40;99.90
25280;DHT22;13225;47.804;12.116;2023-04-03T10:10:42;6.60;99.90
25280;DHT22;13225;47.804;12.116;2023-04-03T10:13:15;6.70;99.90
25280;DHT22;13225;47.804;12.116;2023-04-03T10:27:05;7.10;99.90
25280;DHT22;13225;47.804;12.116;2023-04-03T10:29:51;7.00;99.90
25280;DHT22;13225;47.804;12.116;2023-04-03T10:33:02;6.80;99.90
25280;DHT22;13225;47.804;12.116;2023-04-03T10:41:12;6.40;99.90
25280;DHT22;13225;47.804;12.116;2023-04-03T10:46:28;6.20;99.90
25280;DHT22;13225;47.804;12.116;2023-04-03T10:52:22;6.30;99.90
25280;DHT22;13225;47.804;12.116;2023-04-03T10:57:43;6.50;99.90
25280;DHT22;13225;47.804;12.116;2023-04-03T11:00:22;6.60;99.90
25280;DHT22;13225;47.804;12.116;2023-04-03T11:02:54;6.70;99.90
25280;DHT22;13225;47.804;12.116;2023-04-03T11:05:39;6.80;99.90
25280;DHT22;13225;47.804;12.116;2023-04-03T11:08:13;6.90;99.90
25280;DHT22;13225;47.804;12.116;2023-04-03T11:10:42;7.00;99.90
25280;DHT22;13225;47.804;12.116;2023-04-03T11:13:33;6.90;99.90
25280;DHT22;13225;47.804;12.116;2023-04-03T11:15:59;6.80;99.90
25280;DHT22;13225;47.804;12.116;2023-04-03T11:18:43;6.80;99.90
25280;DHT22;13225;47.804;12.116;2023-04-03T11:21:20;6.80;99.90
25280;DHT22;13225;47.804;12.116;2023-04-03T11:23:47;7.00;99.90
25280;DHT22;13225;47.804;12.116;2023-04-03T11:26:18;7.30;99.90
25280;DHT22;13225;47.804;12.116;2023-04-03T11:28:46;7.40;99.90
25280;DHT22;13225;47.804;12.116;2023-04-03T11:34:06;7.40;99.90
25280;DHT22;13225;47.804;12.116;2023-04-03T11:36:45;7.50;99.90
25280;DHT22;13225;47.804;12.116;2023-04-03T11:39:30;7.60;99.90
25280;DHT22;13225;47.804;12.116;2023-04-03T11:42:14;7.50;99.90
25280;DHT22;13225;47.804;12.116;2023-04-03T11:44:41;7.50;99.90
25280;DHT22;13225;47.804;12.116;2023-04-03T11:47:08;7.40;99.90
25280;DHT22;13225;47.804;12.116;2023-04-03T11:52:54;7.30;99.90
25280;DHT22;13225;47.804;12.116;2023-04-03T12:14:00;6.50;99.90
25280;DHT22;13225;47.804;12.116;2023-04-03T12:24:27;6.50;99.90
25280;DHT22;13225;47.804;12.116;2023-04-03T12:32:08;6.10;99.90
25280;DHT22;13225;47.804;12.116;2023-04-03T12:46:14;6.30;99.90
25280;DHT22;13225;47.804;12.116;2023-04-03T12:51:20;6.40;99.90
25280;DHT22;13225;47.804;12.116;2023-04-03T12:53:47;6.20;99.90
25280;DHT22;13225;47.804;12.116;2023-04-03T12:56:28;6.00;99.90
25280;DHT22;13225;47.804;12.116;2023-04-03T12:59:12;5.90;99.90
25280;DHT22;13225;47.804;12.116;2023-04-03T13:01:38;5.90;99.90
25280;DHT22;13225;47.804;12.116;2023-04-03T13:04:04;5.80;99.90
25280;DHT22;13225;47.804;12.116;2023-04-03T13:06:39;5.60;99.90
25280;DHT22;13225;47.804;12.116;2023-04-03T13:09:13;5.70;99.90
25280;DHT22;13225;47.804;12.116;2023-04-03T13:11:43;5.80;99.90
25280;DHT22;13225;47.804;12.116;2023-04-03T13:14:19;5.90;99.90
25280;DHT22;13225;47.804;12.116;2023-04-03T13:16:58;6.20;99.90
25280;DHT22;13225;47.804;12.116;2023-04-03T13:19:26;6.50;99.90
25280;DHT22;13225;47.804;12.116;2023-04-03T13:22:10;6.60;99.90
25280;DHT22;13225;47.804;12.116;2023-04-03T13:24:38;6.50;99.90
25280;DHT22;13225;47.804;12.116;2023-04-03T13:27:05;6.60;99.90
25280;DHT22;13225;47.804;12.116;2023-04-03T13:29:36;6.80;99.90
25280;DHT22;13225;47.804;12.116;2023-04-03T13:32:03;6.80;99.90
25280;DHT22;13225;47.804;12.116;2023-04-03T13:34:37;6.70;99.90
25280;DHT22;13225;47.804;12.116;2023-04-03T13:37:04;6.40;99.90
25280;DHT22;13225;47.804;12.116;2023-04-03T13:39:35;6.20;99.90
25280;DHT22;13225;47.804;12.116;2023-04-03T13:42:26;6.10;99.90
25280;DHT22;13225;47.804;12.116;2023-04-03T13:47:45;5.80;99.90
25280;DHT22;13225;47.804;12.116;2023-04-03T13:53:01;5.80;99.90
25280;DHT22;13225;47.804;12.116;2023-04-03T13:55:29;5.40;99.90
25280;DHT22;13225;47.804;12.116;2023-04-03T13:58:03;4.90;99.90
25280;DHT22;13225;47.804;12.116;2023-04-03T14:00:33;4.70;99.90
25280;DHT22;13225;47.804;12.116;2023-04-03T14:03:11;4.60;99.90
25280;DHT22;13225;47.804;12.116;2023-04-03T14:05:37;4.50;99.90
25280;DHT22;13225;47.804;12.116;2023-04-03T14:08:03;4.50;99.90
25280;DHT22;13225;47.804;12.116;2023-04-03T14:10:30;4.50;99.90
25280;DHT22;13225;47.804;12.116;2023-04-03T14:12:55;4.40;99.90
25280;DHT22;13225;47.804;12.116;2023-04-03T14:15:24;4.20;99.90
25280;DHT22;13225;47.804;12.116;2023-04-03T14:17:52;4.30;99.90
25280;DHT22;13225;47.804;12.116;2023-04-03T14:20:20;4.40;99.90
25280;DHT22;13225;47.804;12.116;2023-04-03T14:22:47;4.40;99.90
25280;DHT22;13225;47.804;12.116;2023-04-03T14:25:14;4.40;99.90
25280;DHT22;13225;47.804;12.116;2023-04-03T14:27:47;4.50;99.90
25280;DHT22;13225;47.804;12.116;2023-04-03T14:30:20;4.40;99.90
25280;DHT22;13225;47.804;12.116;2023-04-03T14:32:47;4.60;99.90
25280;DHT22;13225;47.804;12.116;2023-04-03T14:35:13;4.70;99.90
25280;DHT22;13225;47.804;12.116;2023-04-03T14:37:39;5.20;99.90
25280;DHT22;13225;47.804;12.116;2023-04-03T14:40:07;4.80;99.90
25280;DHT22;13225;47.804;12.116;2023-04-03T14:42:36;4.90;99.90
25280;DHT22;13225;47.804;12.116;2023-04-03T14:45:07;4.90;99.90
25280;DHT22;13225;47.804;12.116;2023-04-03T14:47:39;4.90;99.90
25280;DHT22;13225;47.804;12.116;2023-04-03T14:50:07;5.00;99.90
25280;DHT22;13225;47.804;12.116;2023-04-03T14:52:35;5.00;99.90
25280;DHT22;13225;47.804;12.116;2023-04-03T14:55:03;5.00;99.90
25280;DHT22;13225;47.804;12.116;2023-04-03T14:57:29;4.70;99.90
25280;DHT22;13225;47.804;12.116;2023-04-03T14:59:56;4.60;99.90
25280;DHT22;13225;47.804;12.116;2023-04-03T15:02:35;4.70;99.90
25280;DHT22;13225;47.804;12.116;2023-04-03T15:05:03;4.40;99.90
25280;DHT22;13225;47.804;12.116;2023-04-03T15:07:33;4.20;99.90
25280;DHT22;13225;47.804;12.116;2023-04-03T15:10:34;4.00;99.90
25280;DHT22;13225;47.804;12.116;2023-04-03T15:13:00;4.10;99.90
25280;DHT22;13225;47.804;12.116;2023-04-03T15:15:28;4.00;99.90
25280;DHT22;13225;47.804;12.116;2023-04-03T15:17:56;4.00;99.90
25280;DHT22;13225;47.804;12.116;2023-04-03T15:20:27;4.00;99.90
25280;DHT22;13225;47.804;12.116;2023-04-03T15:22:53;4.00;99.90
25280;DHT22;13225;47.804;12.116;2023-04-03T15:25:21;3.90;99.90
25280;DHT22;13225;47.804;12.116;2023-04-03T15:27:47;4.10;99.90
25280;DHT22;13225;47.804;12.116;2023-04-03T15:30:18;4.30;99.90
25280;DHT22;13225;47.804;12.116;2023-04-03T15:32:44;4.50;99.90
25280;DHT22;13225;47.804;12.116;2023-04-03T15:35:10;4.50;99.90
25280;DHT22;13225;47.804;12.116;2023-04-03T15:37:35;4.90;99.90
25280;DHT22;13225;47.804;12.116;2023-04-03T15:40:01;5.00;99.90
25280;DHT22;13225;47.804;12.116;2023-04-03T15:42:27;5.20;99.90
25280;DHT22;13225;47.804;12.116;2023-04-03T15:44:53;5.50;99.90
25280;DHT22;13225;47.804;12.116;2023-04-03T15:47:18;5.30;99.90
25280;DHT22;13225;47.804;12.116;2023-04-03T15:49:44;5.40;99.90
25280;DHT22;13225;47.804;12.116;2023-04-03T15:52:10;5.80;99.90
25280;DHT22;13225;47.804;12.116;2023-04-03T15:54:35;5.70;99.90
25280;DHT22;13225;47.804;12.116;2023-04-03T15:57:01;5.60;99.90
25280;DHT22;13225;47.804;12.116;2023-04-03T15:59:26;5.60;99.90
25280;DHT22;13225;47.804;12.116;2023-04-03T16:01:54;5.70;99.90
25280;DHT22;13225;47.804;12.116;2023-04-03T16:04:20;5.90;99.90
25280;DHT22;13225;47.804;12.116;2023-04-03T16:06:46;6.10;99.90
25280;DHT22;13225;47.804;12.116;2023-04-03T16:09:12;6.30;99.90
25280;DHT22;13225;47.804;12.116;2023-04-03T16:11:38;6.20;99.90
25280;DHT22;13225;47.804;12.116;2023-04-03T16:14:06;5.90;99.90
25280;DHT22;13225;47.804;12.116;2023-04-03T16:16:32;5.80;99.90
25280;DHT22;13225;47.804;12.116;2023-04-03T16:18:57;6.00;99.90
25280;DHT22;13225;47.804;12.116;2023-04-03T16:21:23;6.30;99.90
25280;DHT22;13225;47.804;12.116;2023-04-03T16:23:49;6.30;99.90
25280;DHT22;13225;47.804;12.116;2023-04-03T16:26:15;6.20;99.90
25280;DHT22;13225;47.804;12.116;2023-04-03T16:28:43;6.10;99.90
25280;DHT22;13225;47.804;12.116;2023-04-03T16:31:08;6.10;99.90
25280;DHT22;13225;47.804;12.116;2023-04-03T16:33:34;6.20;99.90
25280;DHT22;13225;47.804;12.116;2023-04-03T16:36:01;6.00;99.90
25280;DHT22;13225;47.804;12.116;2023-04-03T16:38:26;5.90;99.90
25280;DHT22;13225;47.804;12.116;2023-04-03T16:40:52;5.80;99.90
25280;DHT22;13225;47.804;12.116;2023-04-03T16:43:21;5.80;99.90
25280;DHT22;13225;47.804;12.116;2023-04-03T16:45:47;5.60;99.90
25280;DHT22;13225;47.804;12.116;2023-04-03T16:48:13;5.50;99.90
25280;DHT22;13225;47.804;12.116;2023-04-03T16:50:39;5.60;99.90
25280;DHT22;13225;47.804;12.116;2023-04-03T16:53:05;5.30;99.90
25280;DHT22;13225;47.804;12.116;2023-04-03T16:55:33;5.20;99.90
25280;DHT22;13225;47.804;12.116;2023-04-03T16:58:00;5.40;99.90
25280;DHT22;13225;47.804;12.116;2023-04-03T17:00:25;5.30;99.90
25280;DHT22;13225;47.804;12.116;2023-04-03T17:02:51;5.30;99.90
25280;DHT22;13225;47.804;12.116;2023-04-03T17:05:16;5.30;99.90
25280;DHT22;13225;47.804;12.116;2023-04-03T17:07:42;5.20;99.90
25280;DHT22;13225;47.804;12.116;2023-04-03T17:10:08;5.20;99.90
25280;DHT22;13225;47.804;12.116;2023-04-03T17:12:34;5.20;99.90
25280;DHT22;13225;47.804;12.116;2023-04-03T17:14:59;5.10;99.90
25280;DHT22;13225;47.804;12.116;2023-04-03T17:17:25;5.00;99.90
25280;DHT22;13225;47.804;12.116;2023-04-03T17:19:51;5.00;99.90